Time;durP1;ratioP1;P1;durP2;ratioP2;P2;SDS_P1;SDS_P2;PMS_P1;PMS_P2;Temp;Humidity;BMP_temperature;BMP_pressure;BME280_temperature;BME280_humidity;BME280_pressure;Samples;Min_cycle;Max_cycle;Signal;HPM_P1;HPM_P2
2022/01/29 00:01:21;;;;;;;45.28;25.25;;;;;;;10.52;60.60;102836.03;4911403;29;20068;-66
2022/01/29 00:03:48;;;;;;;45.20;24.48;;;;;;;10.50;60.57;102841.47;4911718;29;20056;-64
2022/01/29 00:06:16;;;;;;;43.65;24.92;;;;;;;10.49;60.62;102839.72;4911579;29;20044;-66
2022/01/29 00:08:43;;;;;;;46.45;23.48;;;;;;;10.48;60.51;102821.84;4911427;29;20043;-65
2022/01/29 00:11:13;;;;;;;47.30;25.35;;;;;;;10.48;60.67;102820.97;4911650;29;20051;-65
2022/01/29 00:13:44;;;;;;;44.88;24.73;;;;;;;10.47;60.65;102821.91;4911695;29;20052;-66
2022/01/29 00:16:11;;;;;;;48.13;24.35;;;;;;;10.46;60.79;102830.91;4911324;29;20135;-65
2022/01/29 00:18:38;;;;;;;46.03;26.38;;;;;;;10.47;60.74;102819.22;4911757;29;20249;-65
2022/01/29 00:21:04;;;;;;;47.13;24.98;;;;;;;10.48;60.68;102804.84;4911640;29;20044;-65
2022/01/29 00:23:32;;;;;;;50.83;26.52;;;;;;;10.50;61.04;102816.41;4911655;29;20037;-66
2022/01/29 00:26:00;;;;;;;44.17;25.42;;;;;;;10.51;61.10;102812.78;4911381;29;20119;-65
2022/01/29 00:28:27;;;;;;;45.03;26.58;;;;;;;10.54;61.08;102809.09;4911308;28;20052;-65
2022/01/29 00:30:54;;;;;;;45.63;24.20;;;;;;;10.56;60.96;102809.91;4911658;29;20394;-65
2022/01/29 00:33:22;;;;;;;47.05;25.70;;;;;;;10.55;60.82;102801.00;4911767;29;20107;-65
2022/01/29 00:35:49;;;;;;;44.58;25.15;;;;;;;10.55;61.17;102795.63;4911538;29;20114;-66
2022/01/29 00:38:15;;;;;;;45.67;26.17;;;;;;;10.56;61.19;102794.69;4911084;29;20044;-65
2022/01/29 00:40:45;;;;;;;48.90;25.98;;;;;;;10.58;61.17;102787.44;4911455;29;20127;-65
2022/01/29 00:43:12;;;;;;;50.20;26.33;;;;;;;10.60;61.11;102779.31;4914368;29;20498;-65
2022/01/29 00:45:39;;;;;;;44.92;25.52;;;;;;;10.61;60.99;102779.25;4928777;29;20393;-65
2022/01/29 00:48:05;;;;;;;48.05;26.98;;;;;;;10.61;61.23;102776.56;4914444;29;20040;-65
2022/01/29 00:50:32;;;;;;;50.35;26.13;;;;;;;10.61;61.09;102770.31;4914212;29;20040;-65
2022/01/29 00:53:03;;;;;;;52.95;27.77;;;;;;;10.60;61.13;102771.25;4914700;29;20045;-65
2022/01/29 00:55:29;;;;;;;46.55;26.88;;;;;;;10.58;61.50;102768.63;4914340;29;20486;-66
2022/01/29 00:57:56;;;;;;;46.17;27.27;;;;;;;10.59;61.38;102758.75;4913991;29;20055;-65
2022/01/29 01:00:23;;;;;;;44.17;25.98;;;;;;;10.58;61.45;102749.81;4914149;29;20151;-66
2022/01/29 01:02:50;;;;;;;48.03;26.17;;;;;;;10.56;61.50;102743.63;4913973;29;20075;-65
2022/01/29 01:05:16;;;;;;;48.85;26.77;;;;;;;10.53;61.33;102730.31;4914180;29;20142;-65
2022/01/29 01:07:43;;;;;;;47.42;28.20;;;;;;;10.54;61.49;102724.00;4914078;29;20585;-66
2022/01/29 01:10:11;;;;;;;50.92;27.27;;;;;;;10.57;61.60;102720.31;4914120;29;20114;-65
2022/01/29 01:12:38;;;;;;;52.95;27.67;;;;;;;10.57;61.39;102717.63;4914151;29;20490;-65
2022/01/29 01:15:07;;;;;;;48.25;26.75;;;;;;;10.55;61.63;102712.31;4914274;29;20056;-65
2022/01/29 01:17:34;;;;;;;48.70;27.02;;;;;;;10.54;61.55;102699.84;4914163;29;20052;-65
2022/01/29 01:20:01;;;;;;;49.42;26.08;;;;;;;10.54;61.65;102693.59;4913734;29;20513;-65
2022/01/29 01:22:28;;;;;;;51.20;25.75;;;;;;;10.54;61.65;102694.47;4913800;29;20048;-65
2022/01/29 01:24:59;;;;;;;47.47;27.42;;;;;;;10.54;61.77;102693.59;4913852;29;20044;-65
2022/01/29 01:27:26;;;;;;;52.28;28.95;;;;;;;10.49;61.98;102686.59;4913455;29;20422;-65
2022/01/29 01:29:53;;;;;;;55.13;27.73;;;;;;;10.49;61.70;102683.91;4913826;29;20087;-64
2022/01/29 01:32:20;;;;;;;53.50;27.80;;;;;;;10.48;61.67;102682.16;4913679;29;20406;-65
2022/01/29 01:34:52;;;;;;;55.92;27.73;;;;;;;10.50;62.14;102688.34;4913882;29;20048;-65
2022/01/29 01:37:33;;;;;;;54.92;27.55;;;;;;;10.51;62.12;102678.47;4913859;29;20545;-65
2022/01/29 01:40:00;;;;;;;59.13;28.08;;;;;;;10.53;62.05;102671.22;4913767;29;20044;-64
2022/01/29 01:42:27;;;;;;;44.40;24.55;;;;;;;10.55;62.01;102668.47;4913811;29;20063;-65
2022/01/29 01:44:55;;;;;;;48.30;28.05;;;;;;;10.55;61.94;102673.84;4913056;29;20147;-65
2022/01/29 01:47:22;;;;;;;48.75;27.20;;;;;;;10.53;62.05;102675.72;4913832;29;20130;-65
2022/01/29 01:49:49;;;;;;;50.70;27.48;;;;;;;10.50;62.04;102668.66;4913260;29;20110;-65
2022/01/29 01:52:17;;;;;;;56.15;27.92;;;;;;;10.53;62.40;102673.03;4913706;29;20032;-64
2022/01/29 01:54:44;;;;;;;50.22;28.42;;;;;;;10.55;62.33;102666.66;4913484;29;20114;-64
2022/01/29 01:57:11;;;;;;;48.13;26.67;;;;;;;10.56;62.15;102665.72;4913582;29;20553;-65
2022/01/29 01:59:37;;;;;;;51.75;27.38;;;;;;;10.57;62.24;102666.59;4913518;29;20127;-66
2022/01/29 02:02:04;;;;;;;44.95;26.70;;;;;;;10.56;62.39;102663.03;4913548;29;20374;-65
2022/01/29 02:04:33;;;;;;;47.80;26.23;;;;;;;10.59;62.52;102659.34;4913318;29;20140;-65
2022/01/29 02:07:01;;;;;;;52.88;28.33;;;;;;;10.59;62.42;102651.28;4913386;29;20102;-66
2022/01/29 02:09:30;;;;;;;48.25;26.65;;;;;;;10.60;62.43;102648.53;4913071;29;20043;-65
2022/01/29 02:11:58;;;;;;;51.30;27.63;;;;;;;10.60;62.58;102645.84;4913401;29;20040;-66
2022/01/29 02:14:31;;;;;;;51.22;26.67;;;;;;;10.60;62.69;102637.78;4913357;29;20376;-66
2022/01/29 02:16:59;;;;;;;45.78;25.38;;;;;;;10.60;62.58;102635.09;4913320;29;20044;-65
2022/01/29 02:19:27;;;;;;;43.88;25.35;;;;;;;10.59;62.51;102630.66;4913272;29;20098;-66
2022/01/29 02:21:56;;;;;;;42.08;25.85;;;;;;;10.58;62.63;102631.59;4912847;29;20036;-65
2022/01/29 02:24:22;;;;;;;47.28;25.92;;;;;;;10.58;62.68;102620.84;4913138;29;20095;-65
2022/01/29 02:26:49;;;;;;;49.28;26.25;;;;;;;10.60;62.59;102626.16;4912816;29;20433;-65
2022/01/29 02:29:16;;;;;;;43.63;24.98;;;;;;;10.61;62.73;102625.22;4911883;29;20080;-65
2022/01/29 02:31:55;;;;;;;42.72;25.27;;;;;;;10.58;62.80;102622.66;4912685;29;20094;-65
2022/01/29 02:34:24;;;;;;;46.00;25.20;;;;;;;10.57;62.80;102624.47;4912936;29;20049;-64
2022/01/29 02:36:53;;;;;;;39.00;23.38;;;;;;;10.59;62.88;102613.66;4897684;29;20047;-65
2022/01/29 02:39:20;;;;;;;42.63;24.67;;;;;;;10.56;62.79;102606.63;4912523;29;21856;-65
2022/01/29 02:41:47;;;;;;;41.70;25.33;;;;;;;10.56;62.74;102606.63;4912780;29;20121;-65
2022/01/29 02:44:19;;;;;;;42.38;24.42;;;;;;;10.56;62.96;102605.75;4912882;29;20044;-65
2022/01/29 02:49:15;;;;;;;42.75;23.90;;;;;;;10.60;62.97;102591.25;4912718;29;20076;-65
2022/01/29 02:51:47;;;;;;;41.22;24.90;;;;;;;10.60;63.06;102586.72;4912650;29;20064;-65
2022/01/29 02:54:19;;;;;;;38.13;22.40;;;;;;;10.58;62.90;102583.25;4912870;29;20054;-65
2022/01/29 02:56:46;;;;;;;42.47;22.75;;;;;;;10.56;63.04;102590.50;4912757;29;20048;-65
2022/01/29 02:59:13;;;;;;;39.80;23.55;;;;;;;10.55;63.11;102580.69;4912295;29;20044;-64
2022/01/29 03:01:40;;;;;;;33.58;21.50;;;;;;;10.55;63.30;102575.31;4912483;29;20156;-64
2022/01/29 03:04:10;;;;;;;38.00;21.92;;;;;;;10.55;63.39;102578.00;4911756;29;20114;-65
2022/01/29 03:06:37;;;;;;;39.72;21.25;;;;;;;10.57;63.39;102576.13;4912003;29;20095;-66
2022/01/29 03:09:05;;;;;;;35.63;21.00;;;;;;;10.57;63.46;102578.81;4912099;29;20094;-65
2022/01/29 03:11:32;;;;;;;36.38;21.48;;;;;;;10.56;63.43;102579.75;4912290;29;20462;-65
2022/01/29 03:13:59;;;;;;;41.22;23.98;;;;;;;10.57;63.43;102576.13;4912432;29;20054;-65
2022/01/29 03:16:26;;;;;;;40.78;22.05;;;;;;;10.58;63.56;102568.94;4912162;29;20217;-65
2022/01/29 03:18:53;;;;;;;34.28;21.65;;;;;;;10.59;63.63;102560.81;4911756;29;20494;-65
2022/01/29 03:21:19;;;;;;;40.55;21.40;;;;;;;10.60;63.45;102559.88;4912164;29;20076;-65
2022/01/29 03:23:46;;;;;;;34.72;20.83;;;;;;;10.60;63.68;102551.81;4912080;29;20051;-65
2022/01/29 03:26:13;;;;;;;41.63;22.33;;;;;;;10.62;63.63;102552.63;4912654;29;20075;-65
2022/01/29 03:28:40;;;;;;;35.15;21.27;;;;;;;10.62;63.76;102549.94;4912133;29;20119;-65
2022/01/29 03:31:06;;;;;;;42.28;21.98;;;;;;;10.63;63.90;102543.63;4912164;29;20064;-65
2022/01/29 03:33:35;;;;;;;35.35;21.55;;;;;;;10.64;63.72;102536.44;4912104;29;20074;-66
2022/01/29 03:36:02;;;;;;;43.13;20.85;;;;;;;10.65;64.02;102540.84;4912511;29;20076;-65
2022/01/29 03:38:28;;;;;;;36.88;21.50;;;;;;;10.66;63.75;102546.16;4912416;29;20110;-65
2022/01/29 03:40:57;;;;;;;35.83;20.40;;;;;;;10.67;63.91;102529.09;4912380;29;20067;-65
2022/01/29 03:43:33;;;;;;;33.90;20.35;;;;;;;10.66;63.93;102524.66;4911953;29;20044;-65
2022/01/29 03:46:00;;;;;;;37.30;20.63;;;;;;;10.66;63.81;102527.34;4912176;29;20052;-66
2022/01/29 03:48:27;;;;;;;36.10;20.40;;;;;;;10.66;64.20;102523.78;4911881;29;20044;-65
2022/01/29 03:50:53;;;;;;;37.90;20.55;;;;;;;10.66;64.02;102521.97;4912090;29;20099;-65
2022/01/29 03:53:23;;;;;;;34.85;21.50;;;;;;;10.67;64.08;102523.72;4912045;29;20267;-64
2022/01/29 03:55:49;;;;;;;35.72;20.83;;;;;;;10.68;64.16;102519.22;4911934;29;20044;-65
2022/01/29 03:58:16;;;;;;;34.30;19.92;;;;;;;10.69;64.27;102515.59;4911845;29;20086;-64
2022/01/29 04:00:43;;;;;;;36.35;22.40;;;;;;;10.69;64.20;102520.97;4911941;29;20059;-65
2022/01/29 04:03:10;;;;;;;39.78;21.02;;;;;;;10.72;64.20;102515.47;4911676;29;20087;-65
2022/01/29 04:05:37;;;;;;;42.97;22.88;;;;;;;10.74;64.16;102517.13;4911540;29;20064;-65
2022/01/29 04:08:09;;;;;;;38.55;21.25;;;;;;;10.76;64.28;102509.00;4911902;29;20099;-65
2022/01/29 04:10:36;;;;;;;41.92;24.27;;;;;;;10.77;64.36;102513.44;4911871;29;20052;-65
2022/01/29 04:13:10;;;;;;;38.13;22.98;;;;;;;10.77;64.20;102511.63;4911780;29;20072;-65
2022/01/29 04:15:37;;;;;;;43.30;23.40;;;;;;;10.79;64.32;102508.88;4911851;29;20044;-65
2022/01/29 04:18:04;;;;;;;42.97;23.70;;;;;;;10.79;64.41;102504.34;4914293;29;20044;-65
2022/01/29 04:20:31;;;;;;;42.55;22.33;;;;;;;10.80;64.40;102507.91;4915173;29;20399;-64
2022/01/29 04:25:30;;;;;;;43.97;23.45;;;;;;;10.80;64.42;102514.16;4899592;29;20052;-65
2022/01/29 04:27:57;;;;;;;46.28;22.95;;;;;;;10.81;64.45;102507.84;4914659;29;20399;-65
2022/01/29 04:30:32;;;;;;;44.00;22.38;;;;;;;10.82;64.68;102501.53;4915015;29;20044;-64
2022/01/29 04:35:45;;;;;;;;;;;;;;;10.83;64.68;102499.72;4902678;29;20099;-64
2022/01/29 04:38:11;;;;;;;38.50;20.55;;;;;;;10.89;64.62;102495.88;4914495;29;19949;-65
2022/01/29 04:40:38;;;;;;;37.67;21.98;;;;;;;10.88;64.58;102497.69;4914730;29;20044;-65
2022/01/29 04:43:09;;;;;;;37.38;21.58;;;;;;;10.88;64.42;102495.00;4914793;29;20068;-65
2022/01/29 04:45:35;;;;;;;37.92;20.83;;;;;;;10.89;64.71;102486.00;4895705;28;20391;-65
2022/01/29 04:48:02;;;;;;;40.45;20.65;;;;;;;10.90;64.88;102484.19;4895566;29;20059;-65
2022/01/29 04:50:29;;;;;;;38.90;20.83;;;;;;;10.91;64.73;102475.16;4895757;29;20377;-65
2022/01/29 04:52:56;;;;;;;37.75;21.77;;;;;;;10.90;64.87;102471.63;4895776;29;20063;-64
2022/01/29 04:55:31;;;;;;;42.72;21.25;;;;;;;10.92;64.63;102463.47;4914094;29;20087;-64
2022/01/29 04:57:58;;;;;;;37.95;21.13;;;;;;;10.94;65.03;102466.97;4914574;29;20084;-64
2022/01/29 05:00:25;;;;;;;40.22;22.40;;;;;;;10.95;64.90;102455.28;4913992;29;20128;-64
2022/01/29 05:02:54;;;;;;;34.65;19.77;;;;;;;10.95;64.96;102461.50;4914426;29;20340;-65
2022/01/29 05:05:22;;;;;;;39.47;21.48;;;;;;;10.95;65.17;102450.75;4913143;29;20064;-65
2022/01/29 05:07:48;;;;;;;40.67;22.05;;;;;;;10.97;65.15;102461.44;4914097;29;20040;-64
2022/01/29 05:10:15;;;;;;;36.30;20.58;;;;;;;10.98;64.97;102453.31;4914282;29;20517;-65
2022/01/29 05:12:59;;;;;;;42.45;22.40;;;;;;;11.01;64.96;102454.97;4914315;29;20036;-65
2022/01/29 05:27:02;;;;;;;37.60;21.77;;;;;;;11.10;64.89;102443.78;4911315;28;20421;-64
2022/01/29 05:29:30;;;;;;;40.63;21.40;;;;;;;11.10;64.91;102443.78;4912822;29;20076;-65
2022/01/29 05:32:05;;;;;;;36.88;19.77;;;;;;;11.11;65.10;102437.47;4914103;29;20123;-65
2022/01/29 05:34:35;;;;;;;33.35;20.13;;;;;;;11.13;65.25;102440.94;4913899;29;20059;-64
2022/01/29 05:37:02;;;;;;;39.70;22.42;;;;;;;11.14;65.14;102438.19;4913710;29;20044;-64
2022/01/29 05:39:30;;;;;;;43.80;22.17;;;;;;;11.17;65.15;102439.88;4913773;29;20089;-64
2022/01/29 05:41:58;;;;;;;44.78;22.65;;;;;;;11.18;65.20;102451.53;4913741;29;20048;-65
2022/01/29 05:44:26;;;;;;;42.65;21.48;;;;;;;11.22;65.40;102442.34;4913670;29;20056;-64
2022/01/29 05:46:53;;;;;;;41.10;22.38;;;;;;;11.22;65.42;102440.53;4913838;29;20276;-65
2022/01/29 05:49:20;;;;;;;39.83;23.02;;;;;;;11.24;65.50;102440.47;4913528;29;20570;-64
2022/01/29 05:51:47;;;;;;;41.45;22.30;;;;;;;11.26;65.28;102438.56;4913325;29;20120;-64
2022/01/29 05:54:15;;;;;;;43.35;23.27;;;;;;;11.26;65.58;102431.38;4912900;29;20384;-65
2022/01/29 05:56:42;;;;;;;41.45;23.70;;;;;;;11.28;65.43;102439.38;4913788;29;20051;-64
2022/01/29 05:59:09;;;;;;;43.65;23.98;;;;;;;11.29;65.44;102433.03;4913222;29;20118;-65
2022/01/29 06:01:36;;;;;;;44.33;23.27;;;;;;;11.30;65.40;102421.34;4913832;29;20123;-65
2022/01/29 06:04:06;;;;;;;45.05;24.35;;;;;;;11.31;65.34;102409.63;4913451;29;20079;-65
2022/01/29 06:06:33;;;;;;;42.38;24.55;;;;;;;11.33;65.30;102421.19;4913320;29;20056;-65
2022/01/29 06:09:04;;;;;;;42.42;23.48;;;;;;;11.35;65.48;102416.59;4913492;29;20068;-65
2022/01/29 06:11:32;;;;;;;39.65;22.80;;;;;;;11.36;65.52;102421.91;4913427;29;20063;-66
2022/01/29 06:14:00;;;;;;;51.55;26.10;;;;;;;11.39;65.66;102416.38;4913270;29;20098;-65
2022/01/29 06:16:27;;;;;;;44.20;25.73;;;;;;;11.40;65.66;102419.94;4913475;29;20047;-65
2022/01/29 06:18:54;;;;;;;47.30;25.70;;;;;;;11.40;65.34;102420.81;4911950;29;20040;-65
2022/01/29 06:21:20;;;;;;;49.03;25.60;;;;;;;11.42;65.69;102427.00;4913383;29;20569;-65
2022/01/29 06:23:48;;;;;;;45.15;25.25;;;;;;;11.43;65.78;102417.97;4913206;29;20102;-64
2022/01/29 06:26:16;;;;;;;45.78;25.65;;;;;;;11.44;65.46;102402.69;4927733;29;20568;-65
2022/01/29 06:28:43;;;;;;;44.75;25.17;;;;;;;11.47;65.74;102407.94;4912962;29;20071;-65
2022/01/29 06:31:10;;;;;;;50.55;26.30;;;;;;;11.49;65.61;102405.16;4913380;29;20052;-64
2022/01/29 06:33:39;;;;;;;46.47;25.45;;;;;;;11.50;65.51;102393.44;4913027;29;20052;-65
2022/01/29 06:36:06;;;;;;;44.20;24.60;;;;;;;11.49;65.81;102395.28;4913299;29;20328;-65
2022/01/29 06:38:33;;;;;;;44.25;25.23;;;;;;;11.52;65.58;102394.25;4912760;29;20481;-65
2022/01/29 06:41:00;;;;;;;50.88;26.35;;;;;;;11.53;65.56;102395.97;4912638;29;20051;-64
2022/01/29 06:43:29;;;;;;;39.35;23.98;;;;;;;11.54;65.94;102386.97;4913026;28;20451;-66
2022/01/29 06:45:56;;;;;;;45.70;24.02;;;;;;;11.54;65.83;102386.97;4912173;29;20040;-65
2022/01/29 06:48:23;;;;;;;47.25;25.52;;;;;;;11.55;65.92;102386.88;4912444;28;20048;-66
2022/01/29 06:50:50;;;;;;;42.10;24.50;;;;;;;11.56;65.77;102379.69;4912539;29;20048;-66
2022/01/29 06:53:20;;;;;;;46.53;25.17;;;;;;;11.57;65.82;102381.44;4912501;28;20446;-65
2022/01/29 06:55:47;;;;;;;46.78;25.83;;;;;;;11.58;65.88;102380.47;4912130;28;20060;-64
2022/01/29 06:58:14;;;;;;;43.75;24.45;;;;;;;11.59;65.67;102377.72;4911726;29;20106;-66
2022/01/29 07:01:00;;;;;;;43.10;24.10;;;;;;;11.61;66.02;102381.19;4912029;29;20477;-64
2022/01/29 07:03:29;;;;;;;39.35;24.33;;;;;;;11.62;65.90;102382.94;4912664;28;20450;-64
2022/01/29 07:05:55;;;;;;;45.20;24.42;;;;;;;11.62;65.76;102380.25;4911798;28;20060;-64
2022/01/29 07:08:22;;;;;;;41.90;24.85;;;;;;;11.64;65.68;102369.41;4911574;29;20075;-65
2022/01/29 07:10:50;;;;;;;42.60;24.77;;;;;;;11.65;65.71;102363.06;4911797;29;20036;-65
2022/01/29 07:13:20;;;;;;;42.70;24.30;;;;;;;11.66;65.96;102372.88;4912424;28;20487;-65
2022/01/29 07:15:47;;;;;;;39.53;23.70;;;;;;;11.66;65.68;102364.81;4911894;29;20509;-65
2022/01/29 07:18:14;;;;;;;38.35;23.92;;;;;;;11.69;65.95;102359.28;4911619;29;20087;-65
2022/01/29 07:20:40;;;;;;;40.28;23.98;;;;;;;11.69;66.04;102356.56;4909160;29;20044;-65
2022/01/29 07:23:08;;;;;;;39.70;23.48;;;;;;;11.69;65.73;102349.38;4919087;28;20042;-65
2022/01/29 07:25:34;;;;;;;42.33;24.40;;;;;;;11.72;65.92;102359.09;4926013;28;20063;-66
2022/01/29 07:28:01;;;;;;;39.88;23.95;;;;;;;11.74;65.95;102360.78;4926586;28;20036;-65
2022/01/29 07:30:28;;;;;;;43.35;24.60;;;;;;;11.76;65.78;102356.19;4911396;28;20060;-64
2022/01/29 07:32:54;;;;;;;39.08;23.65;;;;;;;11.78;65.89;102348.94;4913670;28;20036;-65
2022/01/29 07:35:21;;;;;;;42.10;23.25;;;;;;;11.80;65.95;102348.84;4911657;28;20147;-65
2022/01/29 07:37:51;;;;;;;39.50;24.77;;;;;;;11.81;65.95;102352.41;4911236;29;20282;-65
2022/01/29 07:40:17;;;;;;;41.83;24.30;;;;;;;11.83;65.80;102355.88;4911783;29;20098;-66
2022/01/29 07:42:44;;;;;;;39.88;23.73;;;;;;;11.82;65.75;102360.41;5006043;28;20040;-66
2022/01/29 07:45:11;;;;;;;39.22;23.95;;;;;;;11.83;65.92;102364.84;4909797;28;20122;-65
2022/01/29 07:47:37;;;;;;;39.53;23.83;;;;;;;11.85;66.12;102362.94;4911884;29;20043;-67
2022/01/29 07:50:04;;;;;;;40.20;23.20;;;;;;;11.86;66.04;102356.59;4912267;29;20073;-66
2022/01/29 07:52:32;;;;;;;40.10;24.15;;;;;;;11.88;65.76;102357.38;4915679;28;20048;-65
2022/01/29 07:55:03;;;;;;;42.60;23.40;;;;;;;11.90;66.09;102343.88;4915413;28;20071;-67
2022/01/29 07:57:30;;;;;;;40.70;23.77;;;;;;;11.90;65.86;102346.56;4915342;29;20437;-67
2022/01/29 07:59:57;;;;;;;41.65;23.48;;;;;;;11.90;66.14;102344.75;4915292;29;20140;-66
2022/01/29 08:02:23;;;;;;;43.47;24.23;;;;;;;11.92;66.24;102350.06;4929778;29;20478;-66
2022/01/29 08:04:51;;;;;;;39.08;23.52;;;;;;;11.93;66.26;102335.66;4915407;29;20075;-68
2022/01/29 08:07:18;;;;;;;39.58;24.70;;;;;;;11.94;65.94;102334.69;4913754;29;20509;-66
2022/01/29 08:09:45;;;;;;;39.25;24.40;;;;;;;11.95;66.44;102321.16;4914964;29;20052;-66
2022/01/29 08:12:12;;;;;;;38.92;23.48;;;;;;;11.97;66.05;102319.25;4914679;29;20060;-66
2022/01/29 08:14:40;;;;;;;42.17;24.00;;;;;;;11.99;66.25;102325.41;4915244;29;20517;-65
2022/01/29 08:17:07;;;;;;;40.05;23.40;;;;;;;12.00;66.27;102319.09;4915054;29;20159;-66
2022/01/29 08:19:34;;;;;;;37.72;24.17;;;;;;;12.04;66.24;102327.88;4914692;29;20040;-66
2022/01/29 08:22:05;;;;;;;41.40;24.40;;;;;;;12.05;66.27;102326.91;4915149;29;20040;-66
2022/01/29 08:24:33;;;;;;;36.72;23.55;;;;;;;12.08;66.45;102318.66;4915199;29;20082;-65
2022/01/29 08:26:59;;;;;;;35.33;21.85;;;;;;;12.09;66.49;102310.50;4914544;29;20090;-65
2022/01/29 08:29:26;;;;;;;37.67;23.77;;;;;;;12.10;66.49;102314.06;4914727;29;20064;-65
2022/01/29 08:31:53;;;;;;;36.92;23.35;;;;;;;12.13;66.42;102318.41;4913530;29;20059;-67
2022/01/29 08:34:20;;;;;;;38.55;24.35;;;;;;;12.15;66.58;102322.78;4915025;28;20462;-66
2022/01/29 08:36:46;;;;;;;35.45;22.45;;;;;;;12.18;66.48;102310.97;4914428;28;20481;-66
2022/01/29 08:39:13;;;;;;;39.50;23.88;;;;;;;12.21;66.66;102313.47;4913843;29;20037;-66
2022/01/29 08:41:40;;;;;;;35.42;22.60;;;;;;;12.24;66.70;102314.19;4914458;29;20119;-66
2022/01/29 08:44:08;;;;;;;37.28;23.00;;;;;;;12.26;66.66;102306.03;4914591;29;20048;-66
2022/01/29 08:46:34;;;;;;;38.15;23.05;;;;;;;12.27;66.50;102303.25;4924335;28;20053;-65
2022/01/29 08:49:01;;;;;;;38.20;23.48;;;;;;;12.29;66.74;102300.47;4914396;28;20070;-66
2022/01/29 08:51:28;;;;;;;35.42;23.20;;;;;;;12.31;66.69;102302.13;4914553;29;20413;-66
2022/01/29 08:53:59;;;;;;;36.10;23.77;;;;;;;12.35;66.63;102298.31;4914810;29;20068;-65
2022/01/29 08:56:25;;;;;;;35.42;22.98;;;;;;;12.38;66.72;102292.75;4914879;29;20553;-66
2022/01/29 08:58:52;;;;;;;36.10;22.42;;;;;;;12.40;66.37;102281.88;4914357;29;20040;-66
2022/01/29 09:01:19;;;;;;;37.17;23.35;;;;;;;12.42;66.79;102282.66;4929060;29;20056;-65
2022/01/29 09:03:46;;;;;;;34.25;22.92;;;;;;;12.45;66.88;102278.94;4913481;29;20076;-66
2022/01/29 09:06:12;;;;;;;36.72;22.92;;;;;;;12.46;66.63;102276.16;4911362;29;20525;-66
2022/01/29 09:08:40;;;;;;;34.72;22.67;;;;;;;12.50;66.79;102279.53;4914077;29;20071;-65
2022/01/29 09:11:07;;;;;;;36.28;23.52;;;;;;;12.51;66.52;102268.69;4914329;29;20044;-66
2022/01/29 09:13:35;;;;;;;32.25;21.88;;;;;;;12.54;66.88;102268.50;4913954;29;20119;-66
2022/01/29 09:16:02;;;;;;;35.85;23.38;;;;;;;12.58;66.64;102261.09;4914188;28;20060;-65
2022/01/29 09:18:29;;;;;;;32.67;22.15;;;;;;;12.59;66.92;102263.72;4928346;29;20040;-66
2022/01/29 09:20:55;;;;;;;36.20;23.33;;;;;;;12.62;66.96;102257.28;4914093;29;20127;-66
2022/01/29 09:23:27;;;;;;;34.08;23.13;;;;;;;12.65;66.72;102249.06;4914497;29;20075;-65
2022/01/29 09:26:01;;;;;;;35.85;22.85;;;;;;;12.68;66.81;102263.22;4912926;29;20445;-70
2022/01/29 09:28:27;;;;;;;35.00;23.15;;;;;;;12.70;66.91;102264.00;4927904;29;20131;-66
2022/01/29 09:30:54;;;;;;;35.72;24.20;;;;;;;12.72;67.01;102258.53;4928886;29;20143;-66
2022/01/29 09:33:22;;;;;;;33.40;23.27;;;;;;;12.75;66.97;102260.16;4914120;28;20075;-66
2022/01/29 09:35:50;;;;;;;32.95;22.30;;;;;;;12.77;67.00;102261.81;4913184;28;20118;-66
2022/01/29 09:38:17;;;;;;;31.05;21.63;;;;;;;12.79;66.89;102264.44;4913690;29;20487;-66
2022/01/29 09:40:44;;;;;;;31.98;21.42;;;;;;;12.80;66.68;102258.09;4913992;29;20048;-66
2022/01/29 09:43:15;;;;;;;33.80;22.42;;;;;;;12.82;66.88;102266.94;4914459;28;20518;-66
2022/01/29 09:45:43;;;;;;;32.10;22.08;;;;;;;12.84;66.66;102265.03;4912482;29;20094;-66
2022/01/29 09:48:11;;;;;;;37.08;22.30;;;;;;;12.85;66.85;102266.78;4912786;29;20086;-67
2022/01/29 09:50:38;;;;;;;36.45;21.50;;;;;;;12.87;67.00;102271.13;4913443;29;20127;-66
2022/01/29 09:53:07;;;;;;;28.58;20.33;;;;;;;12.89;66.75;102268.34;4912658;29;20048;-66
2022/01/29 09:55:34;;;;;;;31.48;20.48;;;;;;;12.92;66.78;102262.75;4913608;28;20087;-66
2022/01/29 09:58:01;;;;;;;34.05;21.70;;;;;;;12.95;66.80;102257.19;4912304;29;20059;-67
2022/01/29 10:00:27;;;;;;;33.67;20.58;;;;;;;12.96;66.78;102265.19;4913647;29;20295;-67
2022/01/29 10:03:10;;;;;;;31.15;20.77;;;;;;;13.00;67.12;102263.19;4914078;28;20357;-67
2022/01/29 10:05:40;;;;;;;33.42;20.88;;;;;;;13.02;67.06;102267.53;4927778;29;20044;-66
2022/01/29 10:08:08;;;;;;;32.65;21.23;;;;;;;13.05;66.98;102266.47;4896419;29;20059;-66
2022/01/29 10:10:44;;;;;;;29.70;20.50;;;;;;;13.07;66.92;102274.47;4928034;29;20047;-66
2022/01/29 10:13:29;;;;;;;31.65;20.58;;;;;;;13.08;66.78;102263.59;4913144;29;20047;-67
2022/01/29 10:16:20;;;;;;;23.92;17.60;;;;;;;13.11;67.06;102263.41;4927043;29;20115;-67
2022/01/29 10:19:00;;;;;;;29.13;18.23;;;;;;;13.13;66.73;102256.09;4911796;29;20041;-68
2022/01/29 10:21:32;;;;;;;28.63;19.40;;;;;;;13.14;66.91;102241.66;4913246;29;20067;-67
2022/01/29 10:24:19;;;;;;;26.00;18.83;;;;;;;13.16;66.84;102241.56;4913581;29;20103;-66
2022/01/29 10:26:48;;;;;;;25.23;17.17;;;;;;;13.19;66.64;102246.81;4912725;28;20063;-67
2022/01/29 10:29:23;;;;;;;26.42;17.10;;;;;;;13.20;66.75;102243.16;4927820;28;20055;-66
2022/01/29 10:31:56;;;;;;;26.60;17.70;;;;;;;13.22;66.77;102238.53;4913074;29;20040;-67
2022/01/29 10:34:32;;;;;;;27.83;17.48;;;;;;;13.24;66.89;102228.50;4913175;29;20564;-66
2022/01/29 10:37:13;;;;;;;25.13;16.77;;;;;;;13.25;66.58;102211.38;4912644;29;20070;-66
2022/01/29 10:39:41;;;;;;;24.65;17.55;;;;;;;13.28;66.81;102203.09;4913007;29;20044;-66
2022/01/29 10:42:20;;;;;;;24.55;16.73;;;;;;;13.29;66.90;102200.28;4912871;29;20048;-67
2022/01/29 10:44:51;;;;;;;24.65;16.10;;;;;;;13.33;66.73;102192.88;4913492;29;20122;-66
2022/01/29 10:47:18;;;;;;;24.80;16.60;;;;;;;13.34;66.46;102189.22;4912446;29;20082;-67
2022/01/29 10:49:55;;;;;;;22.67;16.40;;;;;;;13.36;66.70;102195.38;4912773;29;20052;-66
2022/01/29 10:52:29;;;;;;;22.20;15.90;;;;;;;13.39;66.55;102187.13;4912903;29;20055;-66
2022/01/29 10:55:03;;;;;;;23.13;16.05;;;;;;;13.43;66.63;102185.13;4927546;29;20119;-66
2022/01/29 10:57:35;;;;;;;23.45;16.13;;;;;;;13.46;66.72;102182.22;4926936;29;20044;-65
2022/01/29 11:00:05;;;;;;;20.98;15.65;;;;;;;13.49;66.53;102182.03;4912595;29;20060;-65
2022/01/29 11:02:32;;;;;;;20.60;15.88;;;;;;;13.52;66.57;102177.31;4911242;29;20127;-66
2022/01/29 11:05:04;;;;;;;20.48;15.23;;;;;;;13.56;66.29;102188.78;4910764;29;20632;-65
2022/01/29 11:07:31;;;;;;;21.92;15.95;;;;;;;13.59;66.46;102181.38;4909911;29;20106;-65
2022/01/29 11:10:02;;;;;;;20.10;15.70;;;;;;;13.64;66.42;102181.09;4912662;29;20127;-64
2022/01/29 11:12:33;;;;;;;19.38;15.40;;;;;;;13.66;66.39;102177.31;4911387;29;20066;-65
2022/01/29 11:15:02;;;;;;;20.73;15.82;;;;;;;13.70;66.47;102175.28;4927196;29;20553;-65
2022/01/29 11:17:30;;;;;;;19.38;14.90;;;;;;;13.73;66.23;102169.69;4912344;29;20044;-65
2022/01/29 11:19:58;;;;;;;22.00;14.05;;;;;;;13.75;66.13;102169.59;4912160;29;20044;-65
2022/01/29 11:22:29;;;;;;;20.48;14.30;;;;;;;13.76;66.30;102169.50;4912348;29;20036;-65
2022/01/29 11:25:03;;;;;;;18.88;14.32;;;;;;;13.78;66.13;102156.78;4912246;29;20115;-66
2022/01/29 11:27:32;;;;;;;20.25;16.77;;;;;;;13.81;66.32;102158.41;4912199;29;20143;-69
2022/01/29 11:30:10;;;;;;;19.20;14.27;;;;;;;13.84;66.09;102148.28;4912275;29;20068;-69
2022/01/29 11:32:52;;;;;;;18.92;13.90;;;;;;;13.89;66.35;102137.19;4912364;29;20078;-69
2022/01/29 11:35:25;;;;;;;14.27;12.35;;;;;;;13.96;66.35;102150.19;4912521;29;20395;-69